createdAt,value
2023-05-06T03:59:09.295Z,5.63
2023-05-06T04:00:09.200Z,5.63
2023-05-06T04:01:09.174Z,5.63
2023-05-06T04:02:09.242Z,5.63
2023-05-06T04:03:09.270Z,5.63
2023-05-06T04:04:09.268Z,5.63
2023-05-06T04:05:09.276Z,5.63
2023-05-06T04:06:09.141Z,5.63
2023-05-06T04:07:09.153Z,5.63
2023-05-06T04:08:09.127Z,5.63
2023-05-06T04:09:09.170Z,11.25
2023-05-06T04:10:09.141Z,11.25
2023-05-06T04:11:09.107Z,11.25
2023-05-06T04:12:09.119Z,11.25
2023-05-06T04:13:09.130Z,11.25
2023-05-06T04:14:09.087Z,11.25
2023-05-06T04:15:09.428Z,11.25
2023-05-06T04:16:09.123Z,11.25
2023-05-06T04:17:09.080Z,11.25
2023-05-06T04:18:09.153Z,11.25
2023-05-06T04:19:09.075Z,11.25
2023-05-06T04:20:09.092Z,11.25
2023-05-06T04:21:09.085Z,16.88
2023-05-06T04:22:09.063Z,16.88
2023-05-06T04:23:09.081Z,16.88
2023-05-06T04:24:09.058Z,16.88
2023-05-06T04:25:09.319Z,16.88
2023-05-06T04:26:09.083Z,16.88
2023-05-06T04:27:09.052Z,16.88
2023-05-06T04:28:09.064Z,16.88
2023-05-06T04:29:09.072Z,16.88
2023-05-06T04:30:09.031Z,16.88
2023-05-06T04:31:09.038Z,22.50
2023-05-06T04:32:09.040Z,22.50
2023-05-06T04:33:09.060Z,22.50
2023-05-06T04:34:09.022Z,22.50
2023-05-06T04:35:09.297Z,22.50
2023-05-06T04:36:09.006Z,22.50
2023-05-06T04:37:09.062Z,22.50
2023-05-06T04:38:08.999Z,22.50
2023-05-06T04:39:09.064Z,22.50
2023-05-06T04:40:09.007Z,22.50
2023-05-06T04:41:09.013Z,22.50
2023-05-06T04:42:09.004Z,22.50
2023-05-06T04:43:09.001Z,22.50
2023-05-06T04:44:09.016Z,28.13
2023-05-06T04:45:09.251Z,28.13
2023-05-06T04:46:09.001Z,28.13
2023-05-06T04:47:09.091Z,28.13
2023-05-06T04:48:09.047Z,28.13
2023-05-06T04:49:10.365Z,28.13
2023-05-06T04:50:08.962Z,28.13
2023-05-06T04:51:08.946Z,28.13
2023-05-06T04:52:08.953Z,33.75
2023-05-06T04:53:08.971Z,33.75
2023-05-06T04:54:08.946Z,33.75
2023-05-06T04:55:09.194Z,33.75
2023-05-06T04:56:08.943Z,33.75
2023-05-06T04:57:08.947Z,33.75
2023-05-06T04:58:08.935Z,33.75
2023-05-06T04:59:08.967Z,39.38
2023-05-06T05:00:09.177Z,39.38
2023-05-06T05:01:08.984Z,39.38
2023-05-06T05:02:08.933Z,39.38
2023-05-06T05:03:09.101Z,39.38
2023-05-06T05:04:08.910Z,39.38
2023-05-06T05:05:09.066Z,39.38
2023-05-06T05:06:08.906Z,39.38
2023-05-06T05:07:08.927Z,39.38
2023-05-06T05:08:08.923Z,39.38
2023-05-06T05:09:08.909Z,39.38
2023-05-06T05:10:08.890Z,39.38
2023-05-06T05:11:08.876Z,45.00
2023-05-06T05:12:08.893Z,45.00
2023-05-06T05:13:08.939Z,45.00
2023-05-06T05:14:08.895Z,45.00
2023-05-06T05:15:09.293Z,45.00
2023-05-06T05:16:08.869Z,45.00
2023-05-06T05:17:08.981Z,45.00
2023-05-06T05:18:09.050Z,45.00
2023-05-06T05:19:09.630Z,45.00
2023-05-06T05:20:08.870Z,45.00
2023-05-06T05:21:08.839Z,45.00
2023-05-06T05:22:08.848Z,45.00
2023-05-06T05:23:08.880Z,45.00
2023-05-06T05:24:08.841Z,45.00
2023-05-06T05:25:08.895Z,45.00
2023-05-06T05:26:08.860Z,45.00
2023-05-06T05:27:08.828Z,45.00
2023-05-06T05:28:08.831Z,45.00
2023-05-06T05:29:08.844Z,45.00
2023-05-06T05:30:08.880Z,45.00
2023-05-06T05:31:10.502Z,45.00
2023-05-06T05:32:08.836Z,50.63
2023-05-06T05:33:08.976Z,56.25
2023-05-06T05:34:08.802Z,56.25
2023-05-06T05:35:08.999Z,56.25
2023-05-06T05:36:08.811Z,56.25
2023-05-06T05:37:08.833Z,56.25
2023-05-06T05:38:08.804Z,61.88
2023-05-06T05:39:08.801Z,67.50
2023-05-06T05:40:08.849Z,73.13
2023-05-06T05:41:08.788Z,73.13
2023-05-06T05:42:08.771Z,78.75
2023-05-06T05:43:08.807Z,84.38
2023-05-06T05:44:08.785Z,84.38
2023-05-06T05:45:08.980Z,90.00
2023-05-06T05:46:08.788Z,84.38
2023-05-06T05:47:08.781Z,84.38
2023-05-06T05:48:08.765Z,90.00
2023-05-06T05:49:08.770Z,90.00
2023-05-06T05:50:08.788Z,90.00
2023-05-06T05:51:08.850Z,95.63
2023-05-06T05:52:08.743Z,101.25
2023-05-06T05:53:08.741Z,106.88
2023-05-06T05:54:08.761Z,106.88
2023-05-06T05:55:09.037Z,112.50
2023-05-06T05:56:08.781Z,112.50
2023-05-06T05:57:08.729Z,112.50
2023-05-06T05:58:08.724Z,112.50
2023-05-06T05:59:08.797Z,112.50
2023-05-06T06:00:08.748Z,118.13
2023-05-06T06:01:08.733Z,118.13
2023-05-06T06:02:08.735Z,118.13
2023-05-06T06:03:08.863Z,118.13
2023-05-06T06:04:08.778Z,118.13
2023-05-06T06:05:08.906Z,118.13
2023-05-06T06:06:08.779Z,118.13
2023-05-06T06:07:08.867Z,118.13
2023-05-06T06:08:08.698Z,118.13
2023-05-06T06:09:08.708Z,123.75
2023-05-06T06:10:08.760Z,123.75
2023-05-06T06:11:08.712Z,123.75
2023-05-06T06:12:08.720Z,123.75
2023-05-06T06:13:08.791Z,123.75
2023-05-06T06:14:08.675Z,123.75
2023-05-06T06:15:08.992Z,118.13
2023-05-06T06:16:08.737Z,123.75
2023-05-06T06:17:08.739Z,123.75
2023-05-06T06:18:08.725Z,123.75
2023-05-06T06:19:08.674Z,123.75
2023-05-06T06:20:08.679Z,129.38
2023-05-06T06:21:08.692Z,129.38
2023-05-06T06:22:08.683Z,129.38
2023-05-06T06:23:08.992Z,129.38
2023-05-06T06:24:08.700Z,129.38
2023-05-06T06:25:09.012Z,129.38
2023-05-06T06:27:41.174Z,135.00
2023-05-06T06:28:41.169Z,135.00
2023-05-06T06:29:41.162Z,135.00
2023-05-06T06:30:41.158Z,135.00
2023-05-06T06:31:41.197Z,135.00
2023-05-06T06:32:41.181Z,135.00
2023-05-06T06:33:41.173Z,135.00
2023-05-06T06:34:41.157Z,140.63
2023-05-06T06:35:41.150Z,140.63
2023-05-06T06:36:41.147Z,140.63
2023-05-06T06:37:41.137Z,140.63
2023-05-06T06:38:41.157Z,140.63
2023-05-06T06:39:41.158Z,140.63
2023-05-06T06:40:41.148Z,140.63
2023-05-06T06:41:41.175Z,146.25
2023-05-06T06:42:41.148Z,146.25
2023-05-06T06:43:41.152Z,146.25
2023-05-06T06:44:41.145Z,146.25
2023-05-06T06:45:41.175Z,146.25
2023-05-06T06:46:41.141Z,146.25
2023-05-06T06:47:41.178Z,140.63
2023-05-06T06:48:41.123Z,140.63
2023-05-06T06:49:41.117Z,146.25
2023-05-06T06:50:41.116Z,140.63
2023-05-06T06:51:41.134Z,140.63
2023-05-06T06:52:41.201Z,146.25
2023-05-06T06:53:41.134Z,146.25
2023-05-06T06:54:41.247Z,146.25
2023-05-06T06:55:41.108Z,146.25
2023-05-06T06:56:41.155Z,146.25
2023-05-06T06:57:41.141Z,140.63
2023-05-06T06:58:41.123Z,146.25
2023-05-06T06:59:41.115Z,146.25
2023-05-06T07:00:41.106Z,146.25
2023-05-06T07:01:41.171Z,146.25
2023-05-06T07:02:41.224Z,135.00
2023-05-06T07:03:41.102Z,140.63
2023-05-06T07:04:41.185Z,146.25
2023-05-06T07:05:41.154Z,146.25
2023-05-06T07:06:41.128Z,146.25
2023-05-06T07:07:41.136Z,140.63
2023-05-06T07:08:41.103Z,140.63
2023-05-06T07:09:41.088Z,140.63
2023-05-06T07:10:41.115Z,146.25
2023-05-06T07:11:41.101Z,146.25
2023-05-06T07:12:41.145Z,140.63
2023-05-06T07:13:41.091Z,146.25
2023-05-06T07:14:41.085Z,146.25
2023-05-06T07:15:41.123Z,151.88
2023-05-06T07:16:41.867Z,146.25
2023-05-06T07:17:41.149Z,151.88
2023-05-06T07:18:41.106Z,106.88
2023-05-06T07:19:41.159Z,146.25
2023-05-06T07:20:41.141Z,151.88
2023-05-06T07:21:41.097Z,151.88
2023-05-06T07:22:41.228Z,140.63
2023-05-06T07:23:41.087Z,135.00
2023-05-06T07:24:41.084Z,95.63
2023-05-06T07:25:41.093Z,151.88
2023-05-06T07:26:41.342Z,90.00
2023-05-06T07:27:41.090Z,84.38
2023-05-06T07:28:41.120Z,106.88
2023-05-06T07:29:41.085Z,151.88
2023-05-06T07:30:41.078Z,90.00
2023-05-06T07:31:41.071Z,95.63
2023-05-06T07:32:41.118Z,106.88
2023-05-06T07:33:41.081Z,151.88
2023-05-06T07:34:41.107Z,129.38
2023-05-06T07:35:41.103Z,95.63
2023-05-06T07:36:41.079Z,95.63
2023-05-06T07:37:41.085Z,95.63
2023-05-06T07:38:41.077Z,106.88
2023-05-06T07:39:41.081Z,151.88
2023-05-06T07:40:41.088Z,168.75
2023-05-06T07:41:41.075Z,163.13
2023-05-06T07:42:42.814Z,174.38
2023-05-06T07:43:41.079Z,180.00
2023-05-06T07:44:41.108Z,151.88
2023-05-06T07:45:41.090Z,135.00
2023-05-06T07:46:41.116Z,106.88
2023-05-06T07:47:41.174Z,101.25
2023-05-06T07:48:41.082Z,112.50
2023-05-06T07:49:41.093Z,112.50
2023-05-06T07:50:41.090Z,129.38
2023-05-06T07:51:41.051Z,174.38
2023-05-06T07:52:41.070Z,174.38
2023-05-06T07:53:41.063Z,174.38
2023-05-06T07:54:41.077Z,174.38
2023-05-06T07:55:41.085Z,135.00
2023-05-06T07:56:41.067Z,106.88
2023-05-06T07:57:41.075Z,101.25
2023-05-06T07:58:41.215Z,101.25
2023-05-06T07:59:41.068Z,95.63
2023-05-06T08:00:41.069Z,95.63
2023-05-06T08:01:41.081Z,123.75
2023-05-06T08:02:41.145Z,157.50
2023-05-06T08:03:41.153Z,118.13
2023-05-06T08:04:41.116Z,151.88
2023-05-06T08:05:41.097Z,151.88
2023-05-06T08:06:41.078Z,151.88
2023-05-06T08:07:41.067Z,157.50
2023-05-06T08:08:41.092Z,157.50
2023-05-06T08:09:41.064Z,157.50
2023-05-06T08:10:41.077Z,163.13
2023-05-06T08:11:41.053Z,163.13
2023-05-06T08:12:41.098Z,157.50
2023-05-06T08:13:41.079Z,157.50
2023-05-06T08:14:41.187Z,157.50
2023-05-06T08:15:41.069Z,157.50
2023-05-06T08:16:41.179Z,157.50
2023-05-06T08:17:41.115Z,157.50
2023-05-06T08:18:41.066Z,163.13
2023-05-06T08:19:41.075Z,168.75
2023-05-06T08:20:41.065Z,163.13
2023-05-06T08:21:41.062Z,157.50
2023-05-06T08:22:41.073Z,163.13
2023-05-06T08:23:41.063Z,163.13
2023-05-06T08:24:41.071Z,163.13
2023-05-06T08:25:41.074Z,163.13
2023-05-06T08:26:41.049Z,163.13
2023-05-06T08:27:41.059Z,163.13
2023-05-06T08:28:41.081Z,163.13
2023-05-06T08:29:41.071Z,163.13
2023-05-06T08:30:41.194Z,163.13
2023-05-06T08:31:41.201Z,163.13
2023-05-06T08:32:41.105Z,168.75
2023-05-06T08:33:41.085Z,174.38
2023-05-06T08:34:41.049Z,174.38
2023-05-06T08:35:41.083Z,180.00
2023-05-06T08:36:41.120Z,180.00
2023-05-06T08:37:41.054Z,180.00
2023-05-06T08:38:41.060Z,191.25
2023-05-06T08:39:41.068Z,180.00
2023-05-06T08:40:41.064Z,180.00
2023-05-06T08:41:41.053Z,174.38
2023-05-06T08:42:41.104Z,168.75
2023-05-06T08:43:41.088Z,168.75
2023-05-06T08:44:41.061Z,168.75
2023-05-06T08:45:41.110Z,168.75
2023-05-06T08:46:41.074Z,163.13
2023-05-06T08:47:41.133Z,146.25
2023-05-06T08:48:41.070Z,129.38
2023-05-06T08:49:41.101Z,129.38
2023-05-06T08:50:41.120Z,168.75
2023-05-06T08:51:41.063Z,168.75
2023-05-06T08:52:41.064Z,168.75
2023-05-06T08:53:41.054Z,168.75
2023-05-06T08:54:41.092Z,123.75
2023-05-06T08:55:41.066Z,118.13
2023-05-06T08:56:41.082Z,118.13
2023-05-06T08:57:41.076Z,123.75
2023-05-06T08:58:41.057Z,118.13
2023-05-06T08:59:41.077Z,163.13
2023-05-06T09:00:41.090Z,146.25
2023-05-06T09:01:41.141Z,157.50
2023-05-06T09:02:43.065Z,129.38
2023-05-06T09:03:41.097Z,118.13
2023-05-06T09:04:41.070Z,112.50
2023-05-06T09:05:41.091Z,106.88
2023-05-06T09:06:41.188Z,112.50
2023-05-06T09:07:41.063Z,112.50
2023-05-06T09:08:41.110Z,112.50
2023-05-06T09:09:41.063Z,106.88
2023-05-06T09:10:41.082Z,101.25
2023-05-06T09:11:41.102Z,129.38
2023-05-06T09:12:41.088Z,146.25
2023-05-06T09:13:41.084Z,146.25
2023-05-06T09:14:41.073Z,151.88
2023-05-06T09:15:41.096Z,151.88
2023-05-06T09:16:41.171Z,151.88
2023-05-06T09:17:41.091Z,157.50
2023-05-06T09:18:41.167Z,157.50
2023-05-06T09:19:41.085Z,151.88
2023-05-06T09:20:41.126Z,146.25
2023-05-06T09:21:41.129Z,140.63
2023-05-06T09:22:41.098Z,129.38
2023-05-06T09:23:41.113Z,123.75
2023-05-06T09:24:41.116Z,118.13
2023-05-06T09:25:41.102Z,118.13
2023-05-06T09:26:41.110Z,118.13
2023-05-06T09:27:41.128Z,118.13
2023-05-06T09:28:41.085Z,118.13
2023-05-06T09:29:41.098Z,118.13
2023-05-06T09:30:41.131Z,118.13
2023-05-06T09:31:41.112Z,123.75
2023-05-06T09:32:41.147Z,123.75
2023-05-06T09:33:41.146Z,129.38
2023-05-06T09:34:41.172Z,135.00
2023-05-06T09:35:41.141Z,129.38
2023-05-06T09:36:41.104Z,129.38
2023-05-06T09:37:41.094Z,129.38
2023-05-06T09:38:41.104Z,135.00
2023-05-06T09:39:41.122Z,106.88
2023-05-06T09:40:41.124Z,112.50
2023-05-06T09:41:41.168Z,135.00
2023-05-06T09:42:41.115Z,123.75
2023-05-06T09:43:41.123Z,151.88
2023-05-06T09:44:41.133Z,146.25
2023-05-06T09:45:41.135Z,106.88
2023-05-06T09:46:41.357Z,112.50
2023-05-06T09:47:41.180Z,123.75
2023-05-06T09:48:41.210Z,129.38
2023-05-06T09:51:13.860Z,140.63
2023-05-06T09:52:13.685Z,151.88
2023-05-06T09:53:13.688Z,180.00
2023-05-06T09:54:13.692Z,174.38
2023-05-06T09:55:13.685Z,168.75
2023-05-06T09:56:13.703Z,163.13
2023-05-06T09:57:13.681Z,163.13
2023-05-06T09:58:13.682Z,168.75
2023-05-06T09:59:13.685Z,168.75
2023-05-06T10:00:13.689Z,140.63
2023-05-06T10:01:19.180Z,140.63
2023-05-06T10:02:13.742Z,140.63
2023-05-06T10:13:33.696Z,219.38
2023-05-06T10:14:33.522Z,219.38
2023-05-06T10:15:33.518Z,208.13
2023-05-06T10:16:33.546Z,202.50
2023-05-06T10:17:33.560Z,208.13
2023-05-06T10:18:33.523Z,208.13
2023-05-06T10:19:33.500Z,196.88
2023-05-06T10:20:33.506Z,191.25
2023-05-06T10:21:33.505Z,208.13
2023-05-06T10:22:33.525Z,213.75
2023-05-06T10:23:33.516Z,213.75
2023-05-06T10:24:33.513Z,219.38
2023-05-06T10:25:33.512Z,219.38
2023-05-06T10:26:33.523Z,219.38
2023-05-06T10:27:33.538Z,202.50
2023-05-06T10:28:33.577Z,196.88
2023-05-06T10:29:33.642Z,236.25
2023-05-06T10:30:33.539Z,241.88
2023-05-06T10:31:33.552Z,241.88
2023-05-06T10:32:33.548Z,202.50
2023-05-06T10:33:33.556Z,196.88
2023-05-06T10:34:33.525Z,202.50
2023-05-06T10:35:33.532Z,208.13
2023-05-06T10:36:33.552Z,208.13
2023-05-06T10:37:33.574Z,213.75
2023-05-06T10:38:33.556Z,213.75
2023-05-06T10:39:33.531Z,219.38
2023-05-06T10:40:33.585Z,236.25
2023-05-06T10:41:33.545Z,258.75
2023-05-06T10:42:33.574Z,230.63
2023-05-06T10:43:33.551Z,213.75
2023-05-06T10:44:33.540Z,213.75
2023-05-06T10:45:33.683Z,219.38
2023-05-06T10:46:33.547Z,219.38
2023-05-06T10:47:33.564Z,213.75
2023-05-06T10:48:33.551Z,213.75
2023-05-06T10:49:33.558Z,219.38
2023-05-06T10:50:33.647Z,219.38
2023-05-06T10:51:33.584Z,258.75
2023-05-06T10:52:33.565Z,270.00
2023-05-06T10:53:33.607Z,270.00
2023-05-06T10:54:33.566Z,270.00
2023-05-06T10:55:33.563Z,275.63
2023-05-06T10:56:33.643Z,275.63
2023-05-06T10:57:33.567Z,275.63
2023-05-06T10:58:33.575Z,281.25
2023-05-06T10:59:33.575Z,281.25
2023-05-06T11:00:33.578Z,281.25
2023-05-06T11:01:33.794Z,275.63
2023-05-06T11:02:33.669Z,258.75
2023-05-06T11:03:33.773Z,247.50
2023-05-06T11:04:33.640Z,241.88
2023-05-06T11:05:33.593Z,241.88
2023-05-06T11:06:33.621Z,241.88
2023-05-06T11:07:33.607Z,236.25
2023-05-06T11:08:33.604Z,236.25
2023-05-06T11:09:33.609Z,236.25
2023-05-06T11:10:33.619Z,236.25
2023-05-06T11:11:33.618Z,241.88
2023-05-06T11:12:33.634Z,241.88
2023-05-06T11:13:33.681Z,247.50
2023-05-06T11:14:33.623Z,247.50
2023-05-06T11:15:33.647Z,253.13
2023-05-06T11:16:33.658Z,258.75
2023-05-06T11:17:33.906Z,264.38
2023-05-06T11:18:33.710Z,264.38
2023-05-06T11:19:33.661Z,275.63
2023-05-06T11:20:33.657Z,253.13
2023-05-06T11:21:33.646Z,253.13
2023-05-06T11:22:33.656Z,270.00
2023-05-06T11:23:33.694Z,286.88
2023-05-06T11:24:33.658Z,275.63
2023-05-06T11:25:33.695Z,270.00
2023-05-06T11:26:33.678Z,264.38
2023-05-06T11:27:33.671Z,264.38
2023-05-06T11:28:33.675Z,264.38
2023-05-06T11:29:33.680Z,270.00
2023-05-06T11:30:33.730Z,270.00
2023-05-06T11:31:33.772Z,275.63
2023-05-06T11:32:33.737Z,281.25
2023-05-06T11:33:33.782Z,286.88
2023-05-06T11:34:33.704Z,286.88
2023-05-06T11:35:33.702Z,281.25
2023-05-06T11:36:33.727Z,286.88
2023-05-06T11:37:33.755Z,298.13
2023-05-06T11:38:33.717Z,315.00
2023-05-06T11:39:39.930Z,326.25
2023-05-06T11:40:33.727Z,337.50
2023-05-06T11:41:33.758Z,354.38
2023-05-06T11:42:33.742Z,365.63
2023-05-06T11:43:33.745Z,365.63
2023-05-06T11:44:33.744Z,365.63
2023-05-06T11:45:33.763Z,371.25
2023-05-06T11:46:33.827Z,376.88
2023-05-06T11:47:33.796Z,371.25
2023-05-06T11:48:33.829Z,371.25
2023-05-06T11:49:36.185Z,365.63
2023-05-06T11:50:33.788Z,360.00
2023-05-06T11:51:33.824Z,360.00
2023-05-06T11:52:33.790Z,348.75
2023-05-06T11:53:33.778Z,393.75
2023-05-06T11:54:33.809Z,399.38
2023-05-06T11:55:33.808Z,320.63
2023-05-06T11:56:33.822Z,427.50
2023-05-06T11:57:33.815Z,427.50
2023-05-06T11:58:33.797Z,433.13
2023-05-06T11:59:33.816Z,438.75
2023-05-06T12:00:33.836Z,438.75
2023-05-06T12:01:33.912Z,421.88
2023-05-06T12:02:33.898Z,421.88
2023-05-06T12:03:33.993Z,421.88
2023-05-06T12:04:33.865Z,405.00
2023-05-06T12:05:33.889Z,444.38
2023-05-06T12:06:33.867Z,472.50
2023-05-06T12:07:33.878Z,455.63
2023-05-06T12:08:33.888Z,450.00
2023-05-06T12:09:33.880Z,461.25
2023-05-06T12:10:33.891Z,483.75
2023-05-06T12:11:33.883Z,478.13
2023-05-06T12:12:33.917Z,483.75
2023-05-06T12:13:33.922Z,478.13
2023-05-06T12:14:33.930Z,472.50
2023-05-06T12:15:33.917Z,466.88
2023-05-06T12:16:33.961Z,472.50
2023-05-06T12:17:33.948Z,478.13
2023-05-06T12:18:33.968Z,489.38
2023-05-06T12:19:34.020Z,500.63
2023-05-06T12:20:33.957Z,495.00
2023-05-06T12:21:34.084Z,495.00
2023-05-06T12:22:33.971Z,511.88
2023-05-06T12:23:34.086Z,517.50
2023-05-06T12:24:33.981Z,528.75
2023-05-06T12:25:33.987Z,540.00
2023-05-06T12:26:33.982Z,551.25
2023-05-06T12:27:33.993Z,281.25
2023-05-06T12:28:34.043Z,326.25
2023-05-06T12:29:34.008Z,286.88
2023-05-06T12:30:34.015Z,275.63
2023-05-06T12:31:34.055Z,281.25
2023-05-06T12:32:34.065Z,292.50
2023-05-06T12:33:34.053Z,337.50
2023-05-06T12:34:34.063Z,630.00
2023-05-06T12:35:34.063Z,641.25
2023-05-06T12:36:34.071Z,630.00
2023-05-06T12:37:34.181Z,624.38
2023-05-06T12:38:34.095Z,635.63
2023-05-06T12:39:34.102Z,630.00
2023-05-06T12:40:34.097Z,630.00
2023-05-06T12:41:34.110Z,264.38
2023-05-06T12:42:34.097Z,275.63
2023-05-06T12:43:34.159Z,303.75
2023-05-06T12:44:34.216Z,337.50
2023-05-06T12:45:34.138Z,472.50
2023-05-06T12:46:34.206Z,433.13
2023-05-06T12:47:34.152Z,613.13
2023-05-06T12:48:34.141Z,472.50
2023-05-06T12:49:34.170Z,281.25
2023-05-06T12:50:34.170Z,270.00
2023-05-06T12:51:34.232Z,281.25
2023-05-06T12:52:34.182Z,354.38
2023-05-06T12:53:34.199Z,703.13
2023-05-06T12:54:34.212Z,303.75
2023-05-06T12:55:34.179Z,320.63
2023-05-06T12:56:34.191Z,731.25
2023-05-06T12:57:34.208Z,748.13
2023-05-06T12:58:34.203Z,742.50
2023-05-06T12:59:34.193Z,770.63
2023-05-06T13:00:34.234Z,787.50
2023-05-06T13:01:34.292Z,821.25
2023-05-06T13:02:34.265Z,838.13
2023-05-06T13:06:06.840Z,618.75
2023-05-06T13:07:06.804Z,405.00
2023-05-06T13:08:06.787Z,826.88
2023-05-06T13:09:06.873Z,894.38
2023-05-06T13:10:06.840Z,843.75
2023-05-06T13:11:06.802Z,376.88
2023-05-06T13:12:06.811Z,292.50
2023-05-06T13:13:06.921Z,360.00
2023-05-06T13:14:06.817Z,393.75
2023-05-06T13:15:06.845Z,894.38
2023-05-06T13:16:06.881Z,900.00
2023-05-06T13:17:07.125Z,410.63
2023-05-06T13:18:06.864Z,933.75
2023-05-06T13:19:08.217Z,838.13
2023-05-06T13:20:06.986Z,933.75
2023-05-06T13:21:06.878Z,888.75
2023-05-06T13:22:06.930Z,736.88
2023-05-06T13:23:06.879Z,922.50
2023-05-06T13:24:06.891Z,956.25
2023-05-06T13:25:06.980Z,939.38
2023-05-06T13:26:06.909Z,945.00
2023-05-06T13:27:06.933Z,961.88
2023-05-06T13:28:06.930Z,928.13
2023-05-06T13:29:06.938Z,945.00
2023-05-06T13:30:06.968Z,956.25
2023-05-06T13:31:07.059Z,950.63
2023-05-06T13:32:08.638Z,967.50
2023-05-06T13:33:06.974Z,973.13
2023-05-06T13:34:06.971Z,956.25
2023-05-06T13:35:07.042Z,894.38
2023-05-06T13:36:07.029Z,922.50
2023-05-06T13:37:06.987Z,922.50
2023-05-06T13:38:07.102Z,781.88
2023-05-06T13:39:09.084Z,601.88
2023-05-06T13:40:07.024Z,905.63
2023-05-06T13:41:07.207Z,928.13
2023-05-06T13:42:08.448Z,950.63
2023-05-06T13:43:07.049Z,928.13
2023-05-06T13:44:07.090Z,905.63
2023-05-06T13:45:07.065Z,911.25
2023-05-06T13:46:07.118Z,731.25
2023-05-06T13:47:07.091Z,888.75
2023-05-06T13:48:07.102Z,905.63
2023-05-06T13:49:07.118Z,793.13
2023-05-06T13:50:07.104Z,781.88
2023-05-06T13:51:07.110Z,866.25
2023-05-06T13:52:08.282Z,781.88
2023-05-06T13:53:07.117Z,793.13
2023-05-06T13:54:07.144Z,765.00
2023-05-06T13:55:07.166Z,697.50
2023-05-06T13:56:07.145Z,635.63
2023-05-06T13:57:07.157Z,630.00
2023-05-06T13:58:07.171Z,663.75
2023-05-06T13:59:07.197Z,680.63
2023-05-06T14:00:07.250Z,663.75
2023-05-06T14:01:07.231Z,742.50
2023-05-06T14:02:09.385Z,725.63
2023-05-06T14:03:07.231Z,731.25
2023-05-06T14:04:07.224Z,759.38
2023-05-06T14:05:07.266Z,753.75
2023-05-06T14:06:07.237Z,781.88
2023-05-06T14:07:07.244Z,798.75
2023-05-06T14:08:07.238Z,883.13
2023-05-06T14:09:07.249Z,1012.50
2023-05-06T14:10:07.297Z,1119.38
2023-05-06T14:11:07.301Z,1445.63
2023-05-06T14:12:07.274Z,1473.75
2023-05-06T14:13:07.452Z,1316.25
2023-05-06T14:14:07.289Z,1749.38
2023-05-06T14:15:07.436Z,1777.50
2023-05-06T14:16:07.420Z,1906.88
2023-05-06T14:17:07.408Z,1828.13
2023-05-06T14:18:07.482Z,1766.25
2023-05-06T14:19:07.346Z,1726.88
2023-05-06T14:20:07.401Z,1445.63
2023-05-06T14:21:07.381Z,1738.13
2023-05-06T14:22:07.401Z,1850.63
2023-05-06T14:23:07.446Z,1906.88
2023-05-06T14:24:08.050Z,1968.75
2023-05-06T14:25:07.442Z,2025.00
2023-05-06T14:26:07.460Z,2058.75
2023-05-06T14:27:07.589Z,2025.00
2023-05-06T14:28:07.466Z,1991.25
2023-05-06T14:29:07.645Z,1906.88
2023-05-06T14:30:09.424Z,1811.25
2023-05-06T14:31:07.467Z,1783.13
2023-05-06T14:32:07.510Z,1805.63
2023-05-06T14:33:07.567Z,1738.13
2023-05-06T14:34:07.460Z,1698.75
2023-05-06T14:35:07.526Z,1755.00
2023-05-06T14:36:07.487Z,1726.88
2023-05-06T14:37:07.476Z,1681.88
2023-05-06T14:38:07.529Z,1653.75
2023-05-06T14:39:07.525Z,1591.88
2023-05-06T14:40:07.515Z,1541.25
2023-05-06T14:41:07.568Z,1490.63
2023-05-06T14:42:07.544Z,1563.75
2023-05-06T14:43:07.603Z,1563.75
2023-05-06T14:44:07.574Z,1586.25
2023-05-06T14:45:07.752Z,1603.13
2023-05-06T14:46:07.646Z,1552.50
2023-05-06T14:47:07.575Z,1575.00
2023-05-06T14:48:07.749Z,1451.25
2023-05-06T14:49:07.602Z,1462.50
2023-05-06T14:50:07.612Z,1299.38
2023-05-06T14:51:07.653Z,1321.88
2023-05-06T14:52:07.626Z,1226.25
2023-05-06T14:53:07.640Z,950.63
2023-05-06T14:54:07.653Z,1057.50
2023-05-06T14:55:07.755Z,1248.75
2023-05-06T14:56:07.663Z,1282.50
2023-05-06T14:57:07.645Z,1276.88
2023-05-06T14:58:07.661Z,1310.63
2023-05-06T14:59:07.669Z,1327.50
2023-05-06T15:00:07.676Z,1378.13
2023-05-06T15:01:07.830Z,1400.63
2023-05-06T15:02:07.699Z,1366.88
2023-05-06T15:03:07.835Z,1361.25
2023-05-06T15:04:07.696Z,1175.63
2023-05-06T15:05:07.743Z,1254.38
2023-05-06T15:06:07.826Z,1203.75
2023-05-06T15:07:07.719Z,1203.75
2023-05-06T15:08:07.721Z,1085.63
2023-05-06T15:09:07.753Z,1080.00
2023-05-06T15:10:07.754Z,1085.63
2023-05-06T15:11:07.772Z,1074.38
2023-05-06T15:12:07.760Z,1006.88
2023-05-06T15:13:07.848Z,1018.13
2023-05-06T15:14:07.765Z,995.63
2023-05-06T15:15:07.817Z,1029.38
2023-05-06T15:16:10.495Z,1063.13
2023-05-06T15:17:07.976Z,1074.38
2023-05-06T15:18:07.887Z,1063.13
2023-05-06T15:19:07.825Z,1046.25
2023-05-06T15:20:07.824Z,956.25
2023-05-06T15:21:07.837Z,950.63
2023-05-06T15:22:07.845Z,950.63
2023-05-06T15:23:07.844Z,883.13
2023-05-06T15:24:07.831Z,804.38
2023-05-06T15:25:09.502Z,765.00
2023-05-06T15:26:07.852Z,770.63
2023-05-06T15:27:07.885Z,680.63
2023-05-06T15:28:07.891Z,624.38
2023-05-06T15:29:09.582Z,540.00
2023-05-06T15:30:07.885Z,405.00
2023-05-06T15:31:07.916Z,270.00
2023-05-06T15:32:08.156Z,213.75
2023-05-06T15:33:07.892Z,230.63
2023-05-06T15:34:07.941Z,253.13
2023-05-06T15:35:07.964Z,241.88
2023-05-06T15:36:07.887Z,225.00
2023-05-06T15:37:07.902Z,213.75
2023-05-06T15:38:07.934Z,219.38
2023-05-06T15:39:07.927Z,219.38
2023-05-06T15:40:07.978Z,236.25
2023-05-06T15:41:08.002Z,236.25
2023-05-06T15:42:07.977Z,236.25
2023-05-06T15:43:07.947Z,230.63
2023-05-06T15:44:09.932Z,225.00
2023-05-06T15:45:08.021Z,219.38
2023-05-06T15:46:08.099Z,219.38
2023-05-06T15:47:07.988Z,213.75
2023-05-06T15:48:08.043Z,208.13
2023-05-06T15:49:39.634Z,202.50
2023-05-06T15:51:08.065Z,196.88
2023-05-06T15:52:07.987Z,196.88
2023-05-06T15:53:07.964Z,196.88
2023-05-06T15:54:08.071Z,202.50
2023-05-06T15:55:08.009Z,202.50
2023-05-06T15:56:17.753Z,196.88
2023-05-06T15:57:08.044Z,191.25
2023-05-06T15:58:07.998Z,191.25
2023-05-06T15:59:08.029Z,191.25
2023-05-06T16:00:08.095Z,174.38
2023-05-06T16:01:08.085Z,168.75
2023-05-06T16:12:46.998Z,151.88
2023-05-06T16:13:46.837Z,151.88
2023-05-06T16:14:46.859Z,151.88
2023-05-06T16:15:46.906Z,146.25
2023-05-06T16:16:46.925Z,146.25
2023-05-06T16:17:46.897Z,146.25
2023-05-06T16:18:46.836Z,146.25
2023-05-06T16:19:46.850Z,140.63
2023-05-06T16:20:46.841Z,140.63
2023-05-06T16:21:46.838Z,140.63
2023-05-06T16:22:46.830Z,140.63
2023-05-06T16:23:46.858Z,135.00
2023-05-06T16:24:46.840Z,135.00
2023-05-06T16:25:46.835Z,135.00
2023-05-06T16:26:46.851Z,129.38
2023-05-06T16:27:46.857Z,123.75
2023-05-06T16:28:46.927Z,118.13
2023-05-06T16:29:46.853Z,112.50
2023-05-06T16:30:46.866Z,112.50
2023-05-06T16:31:46.976Z,112.50
2023-05-06T16:32:46.890Z,106.88
2023-05-06T16:33:46.891Z,106.88
2023-05-06T16:34:46.849Z,106.88
2023-05-06T16:35:46.849Z,106.88
2023-05-06T16:36:46.877Z,112.50
2023-05-06T16:37:46.872Z,112.50
2023-05-06T16:38:46.882Z,106.88
2023-05-06T16:39:46.856Z,106.88
2023-05-06T16:40:46.861Z,101.25
2023-05-06T16:41:46.867Z,101.25
2023-05-06T16:42:46.861Z,101.25
2023-05-06T16:43:46.908Z,101.25
2023-05-06T16:44:46.996Z,101.25
2023-05-06T16:45:46.856Z,101.25
2023-05-06T16:46:46.892Z,95.63
2023-05-06T16:47:46.929Z,95.63
2023-05-06T16:48:46.940Z,95.63
2023-05-06T16:49:46.900Z,95.63
2023-05-06T16:50:46.869Z,95.63
2023-05-06T16:51:46.885Z,95.63
2023-05-06T16:52:46.865Z,95.63
2023-05-06T16:53:46.875Z,90.00
2023-05-06T16:54:46.879Z,90.00
2023-05-06T16:55:46.879Z,84.38
2023-05-06T16:56:52.005Z,84.38